createdAt,value
2017-08-26T00:01:09.279Z,9.90
2017-08-26T00:03:37.623Z,8.93
2017-08-26T00:06:06.177Z,8.80
2017-08-26T00:08:34.552Z,10.23
2017-08-26T00:11:02.876Z,10.30
2017-08-26T00:13:31.622Z,10.13
2017-08-26T00:15:59.960Z,10.20
2017-08-26T00:18:28.352Z,10.20
2017-08-26T00:20:56.830Z,9.10
2017-08-26T00:23:25.266Z,10.20
2017-08-26T00:25:53.917Z,10.27
2017-08-26T00:28:22.321Z,11.23
2017-08-26T00:30:50.662Z,10.00
2017-08-26T00:33:19.049Z,10.10
2017-08-26T00:35:47.728Z,8.97
2017-08-26T00:38:16.089Z,9.80
2017-08-26T00:40:44.428Z,11.07
2017-08-26T00:43:12.946Z,10.60
2017-08-26T00:45:41.289Z,9.00
2017-08-26T00:48:09.685Z,9.77
2017-08-26T00:50:38.285Z,10.40
2017-08-26T00:53:06.664Z,9.83
2017-08-26T00:55:35.030Z,9.97
2017-08-26T00:58:03.772Z,10.43
2017-08-26T01:00:32.133Z,11.40
2017-08-26T01:03:00.493Z,9.50
2017-08-26T01:05:29.077Z,11.27
2017-08-26T01:07:57.441Z,11.67
2017-08-26T01:10:25.815Z,10.20
2017-08-26T01:12:54.192Z,11.33
2017-08-26T01:15:22.538Z,12.20
2017-08-26T01:17:50.916Z,11.50
2017-08-26T01:20:19.567Z,11.00
2017-08-26T01:22:47.882Z,13.63
2017-08-26T01:25:16.229Z,10.93
2017-08-26T01:27:44.753Z,9.80
2017-08-26T01:30:13.088Z,10.60
2017-08-26T01:32:41.420Z,10.07
2017-08-26T01:35:10.021Z,10.17
2017-08-26T01:37:38.333Z,9.97
2017-08-26T01:40:06.660Z,9.87
2017-08-26T01:42:35.511Z,9.30
2017-08-26T01:45:04.906Z,7.80
2017-08-26T01:47:33.296Z,9.80
2017-08-26T01:50:02.085Z,10.30
2017-08-26T01:52:30.494Z,8.80
2017-08-26T01:54:58.841Z,8.50
2017-08-26T01:57:27.520Z,9.20
2017-08-26T01:59:55.908Z,10.30
2017-08-26T02:02:24.524Z,10.33
2017-08-26T02:04:53.291Z,9.73
2017-08-26T02:07:22.681Z,8.87
2017-08-26T02:09:51.006Z,8.17
2017-08-26T02:12:19.684Z,9.00
2017-08-26T02:14:48.067Z,7.50
2017-08-26T02:17:16.437Z,8.57
2017-08-26T02:19:45.231Z,7.67
2017-08-26T02:22:13.588Z,8.10
2017-08-26T02:24:42.718Z,7.80
2017-08-26T02:27:11.469Z,8.10
2017-08-26T02:29:40.408Z,8.03
2017-08-26T02:32:08.741Z,9.00
2017-08-26T02:34:37.687Z,8.60
2017-08-26T02:37:06.054Z,8.20
2017-08-26T02:39:34.608Z,7.93
2017-08-26T02:42:03.336Z,9.20
2017-08-26T02:44:32.458Z,9.80
2017-08-26T02:47:00.838Z,10.87
2017-08-26T02:49:29.391Z,11.33
2017-08-26T02:51:57.774Z,13.23
2017-08-26T02:54:26.201Z,11.07
2017-08-26T02:56:54.842Z,13.37
2017-08-26T02:59:23.189Z,12.33
2017-08-26T03:01:51.532Z,12.03
2017-08-26T03:04:20.323Z,14.17
2017-08-26T03:06:48.643Z,13.97
2017-08-26T03:09:17.012Z,14.80
2017-08-26T03:11:45.605Z,16.60
2017-08-26T03:14:13.975Z,14.20
2017-08-26T03:16:42.312Z,16.10
2017-08-26T03:19:10.997Z,17.77
2017-08-26T03:21:39.365Z,15.90
2017-08-26T03:24:07.752Z,15.07
2017-08-26T03:26:36.290Z,17.07
2017-08-26T03:29:04.644Z,14.80
2017-08-26T03:31:33.004Z,17.20
2017-08-26T03:34:01.506Z,16.50
2017-08-26T03:36:29.884Z,16.23
2017-08-26T03:38:58.264Z,16.60
2017-08-26T03:41:26.949Z,15.97
2017-08-26T03:43:55.864Z,16.13
2017-08-26T03:46:24.223Z,15.07
2017-08-26T03:48:52.781Z,16.40
2017-08-26T03:51:21.101Z,16.13
2017-08-26T03:53:49.464Z,16.37
2017-08-26T03:56:18.165Z,15.70
2017-08-26T03:58:46.517Z,14.40
2017-08-26T04:01:14.949Z,19.12
2017-08-26T04:03:43.464Z,18.27
2017-08-26T04:06:11.776Z,18.13
2017-08-26T04:08:40.158Z,22.57
2017-08-26T04:11:09.066Z,19.53
2017-08-26T04:13:37.461Z,19.00
2017-08-26T04:16:06.970Z,19.40
2017-08-26T04:18:35.532Z,19.60
2017-08-26T04:21:03.898Z,20.80
2017-08-26T04:23:32.326Z,21.57
2017-08-26T04:26:00.702Z,18.93
2017-08-26T04:28:29.107Z,19.97
2017-08-26T04:30:57.513Z,18.63
2017-08-26T04:33:26.037Z,19.50
2017-08-26T04:35:54.639Z,18.97
2017-08-26T04:38:23.091Z,19.73
2017-08-26T04:40:51.891Z,17.73
2017-08-26T04:43:20.236Z,18.63
2017-08-26T04:45:48.666Z,19.90
2017-08-26T04:48:17.401Z,18.50
2017-08-26T04:50:45.737Z,16.60
2017-08-26T04:53:14.109Z,17.57
2017-08-26T04:55:42.489Z,15.33
2017-08-26T04:58:11.837Z,17.43
2017-08-26T05:00:41.041Z,16.47
2017-08-26T05:03:09.827Z,17.03
2017-08-26T05:05:38.152Z,16.47
2017-08-26T05:08:06.520Z,37.57
2017-08-26T05:10:35.133Z,17.13
2017-08-26T05:13:03.485Z,17.73
2017-08-26T05:15:31.825Z,15.83
2017-08-26T05:18:00.263Z,14.97
2017-08-26T05:20:29.358Z,18.27
2017-08-26T05:22:57.712Z,15.13
2017-08-26T05:25:26.167Z,14.10
2017-08-26T05:27:55.166Z,23.77
2017-08-26T05:30:23.637Z,19.13
2017-08-26T05:32:52.330Z,18.67
2017-08-26T05:35:20.697Z,18.50
2017-08-26T05:37:49.022Z,19.27
2017-08-26T05:40:17.794Z,16.43
2017-08-26T05:42:46.140Z,16.40
2017-08-26T05:45:14.482Z,18.03
2017-08-26T05:47:43.294Z,21.37
2017-08-26T05:50:11.650Z,20.40
2017-08-26T05:52:40.022Z,16.10
2017-08-26T05:55:08.608Z,14.47
2017-08-26T05:57:37.852Z,17.40
2017-08-26T06:00:06.340Z,14.33
2017-08-26T06:02:35.105Z,13.70
2017-08-26T06:05:03.552Z,13.07
2017-08-26T06:07:31.923Z,13.40
2017-08-26T06:10:00.411Z,13.60
2017-08-26T06:12:28.739Z,11.10
2017-08-26T06:14:57.117Z,11.60
2017-08-26T06:17:25.689Z,11.67
2017-08-26T06:19:54.057Z,11.97
2017-08-26T06:22:22.409Z,9.80
2017-08-26T06:24:50.977Z,9.47
2017-08-26T06:27:19.318Z,9.33
2017-08-26T06:29:47.673Z,9.50
2017-08-26T06:32:16.211Z,8.87
2017-08-26T06:34:44.574Z,9.70
2017-08-26T06:37:12.933Z,9.77
2017-08-26T06:39:41.299Z,7.27
2017-08-26T06:42:09.653Z,9.27
2017-08-26T06:44:37.977Z,7.73
2017-08-26T06:47:06.529Z,9.10
2017-08-26T06:49:34.876Z,8.07
2017-08-26T06:52:03.248Z,7.30
2017-08-26T06:54:32.051Z,7.77
2017-08-26T06:57:00.429Z,6.90
2017-08-26T06:59:29.046Z,6.10
2017-08-26T07:01:57.964Z,5.90
2017-08-26T07:04:26.394Z,6.13
2017-08-26T07:06:54.720Z,6.07
2017-08-26T07:09:23.429Z,5.33
2017-08-26T07:11:51.750Z,6.53
2017-08-26T07:14:20.881Z,4.30
2017-08-26T07:16:49.567Z,6.40
2017-08-26T07:19:17.958Z,4.67
2017-08-26T07:21:46.282Z,5.30
2017-08-26T07:24:14.941Z,4.63
2017-08-26T07:26:43.247Z,5.80
2017-08-26T07:29:11.567Z,4.50
2017-08-26T07:31:40.062Z,4.07
2017-08-26T07:34:08.377Z,4.23
2017-08-26T07:36:36.867Z,3.77
2017-08-26T07:39:05.226Z,4.90
2017-08-26T07:41:33.992Z,3.97
2017-08-26T07:44:02.304Z,4.53
2017-08-26T07:46:30.826Z,4.30
2017-08-26T07:48:59.182Z,3.40
2017-08-26T07:51:28.364Z,5.00
2017-08-26T07:53:57.982Z,5.90
2017-08-26T07:56:28.198Z,5.20
2017-08-26T07:58:58.760Z,4.23
2017-08-26T08:01:28.082Z,3.70
2017-08-26T08:03:56.589Z,6.10
2017-08-26T08:06:24.968Z,3.90
2017-08-26T08:08:53.660Z,2.83
2017-08-26T08:11:22.030Z,3.03
2017-08-26T08:13:52.431Z,4.50
2017-08-26T08:16:21.281Z,4.30
2017-08-26T08:18:49.623Z,5.37
2017-08-26T08:21:18.037Z,6.67
2017-08-26T08:23:46.670Z,3.83
2017-08-26T08:26:15.246Z,3.03
2017-08-26T08:28:46.942Z,2.70
2017-08-26T08:31:15.650Z,6.40
2017-08-26T08:33:44.104Z,4.27
2017-08-26T08:36:13.160Z,4.13
2017-08-26T08:38:41.713Z,4.87
2017-08-26T08:41:10.438Z,8.93
2017-08-26T08:43:38.777Z,3.30
2017-08-26T08:46:07.606Z,5.63
2017-08-26T08:48:35.949Z,5.77
2017-08-26T08:51:04.331Z,7.20
2017-08-26T08:53:33.103Z,5.10
2017-08-26T08:56:01.422Z,4.17
2017-08-26T08:58:30.701Z,5.60
2017-08-26T09:01:00.341Z,8.23
2017-08-26T09:03:28.667Z,3.97
2017-08-26T09:05:57.021Z,3.93
2017-08-26T09:08:25.578Z,4.47
2017-08-26T09:10:53.926Z,3.40
2017-08-26T09:13:22.256Z,6.93
2017-08-26T09:15:50.984Z,3.90
2017-08-26T09:18:19.341Z,3.03
2017-08-26T09:20:47.741Z,4.17
2017-08-26T09:23:16.535Z,3.07
2017-08-26T09:25:44.946Z,4.87
2017-08-26T09:28:13.322Z,2.10
2017-08-26T09:30:42.147Z,2.97
2017-08-26T09:33:10.538Z,1.97
2017-08-26T09:35:39.269Z,2.20
2017-08-26T09:38:08.226Z,1.80
2017-08-26T09:40:36.596Z,5.13
2017-08-26T09:43:04.921Z,2.73
2017-08-26T09:45:34.013Z,2.47
2017-08-26T09:48:02.336Z,2.60
2017-08-26T09:50:30.675Z,4.63
2017-08-26T09:52:59.215Z,2.43
2017-08-26T09:55:27.530Z,3.53
2017-08-26T09:57:57.414Z,2.30
2017-08-26T10:00:25.930Z,1.70
2017-08-26T10:02:54.263Z,1.90
2017-08-26T10:05:22.583Z,2.23
2017-08-26T10:07:52.242Z,1.90
2017-08-26T10:10:20.573Z,1.77
2017-08-26T10:12:49.497Z,1.90
2017-08-26T10:15:18.236Z,3.90
2017-08-26T10:17:47.326Z,8.90
2017-08-26T10:20:15.713Z,2.10
2017-08-26T10:22:44.430Z,2.80
2017-08-26T10:25:12.739Z,2.07
2017-08-26T10:27:41.104Z,4.07
2017-08-26T10:30:09.810Z,2.50
2017-08-26T10:32:38.265Z,9.60
2017-08-26T10:35:06.627Z,7.27
2017-08-26T10:37:35.220Z,3.03
2017-08-26T10:40:03.628Z,4.03
2017-08-26T10:42:33.837Z,2.30
2017-08-26T10:45:02.528Z,2.40
2017-08-26T10:47:31.838Z,2.13
2017-08-26T10:50:00.249Z,2.80
2017-08-26T10:52:28.805Z,3.07
2017-08-26T10:54:57.243Z,3.97
2017-08-26T10:57:25.645Z,2.87
2017-08-26T10:59:54.138Z,3.30
2017-08-26T11:02:22.473Z,2.30
2017-08-26T11:04:50.801Z,3.30
2017-08-26T11:07:19.542Z,3.03
2017-08-26T11:09:47.957Z,3.23
2017-08-26T11:12:16.302Z,5.90
2017-08-26T11:14:44.929Z,5.00
2017-08-26T11:17:13.272Z,4.87
2017-08-26T11:19:41.597Z,3.00
2017-08-26T11:22:10.120Z,3.10
2017-08-26T11:24:38.481Z,3.83
2017-08-26T11:27:06.814Z,4.53
2017-08-26T11:29:35.521Z,7.40
2017-08-26T11:32:03.868Z,5.60
2017-08-26T11:34:32.236Z,3.90
2017-08-26T11:37:00.826Z,4.33
2017-08-26T11:39:29.196Z,2.83
2017-08-26T11:41:58.492Z,3.27
2017-08-26T11:44:27.160Z,3.00
2017-08-26T11:46:55.506Z,3.13
2017-08-26T11:49:24.023Z,3.30
2017-08-26T11:51:52.672Z,2.30
2017-08-26T11:54:20.999Z,2.63
2017-08-26T11:56:49.421Z,3.10
2017-08-26T11:59:18.133Z,2.80
2017-08-26T12:01:46.475Z,3.13
2017-08-26T12:04:14.829Z,3.03
2017-08-26T12:06:43.365Z,3.20
2017-08-26T12:09:11.729Z,2.53
2017-08-26T12:11:41.058Z,4.73
2017-08-26T12:14:09.869Z,4.00
2017-08-26T12:16:38.235Z,4.17
2017-08-26T12:19:06.617Z,2.77
2017-08-26T12:21:35.317Z,2.90
2017-08-26T12:24:03.689Z,3.33
2017-08-26T12:26:32.074Z,2.87
2017-08-26T12:29:00.629Z,3.10
2017-08-26T12:31:29.157Z,3.87
2017-08-26T12:33:57.629Z,5.10
2017-08-26T12:36:26.679Z,3.27
2017-08-26T12:38:54.994Z,3.07
2017-08-26T12:41:23.373Z,2.23
2017-08-26T12:43:51.939Z,3.50
2017-08-26T12:46:21.259Z,2.37
2017-08-26T12:48:49.808Z,2.23
2017-08-26T12:51:18.642Z,2.77
2017-08-26T12:53:46.986Z,2.30
2017-08-26T12:56:16.141Z,2.50
2017-08-26T12:58:46.141Z,3.50
2017-08-26T13:01:14.455Z,3.87
2017-08-26T13:03:42.834Z,2.80
2017-08-26T13:06:11.549Z,3.47
2017-08-26T13:08:39.949Z,2.73
2017-08-26T13:11:09.249Z,2.97
2017-08-26T13:13:37.652Z,3.20
2017-08-26T13:16:06.012Z,3.53
2017-08-26T13:18:34.341Z,3.47
2017-08-26T13:21:03.490Z,3.10
2017-08-26T13:23:31.815Z,3.10
2017-08-26T13:26:01.520Z,4.00
2017-08-26T13:28:30.182Z,3.10
2017-08-26T13:30:59.240Z,3.17
2017-08-26T13:33:27.625Z,3.33
2017-08-26T13:35:58.421Z,3.80
2017-08-26T13:38:27.880Z,2.97
2017-08-26T13:40:56.387Z,3.07
2017-08-26T13:43:25.065Z,2.50
2017-08-26T13:45:53.961Z,2.57
2017-08-26T13:48:22.333Z,3.30
2017-08-26T13:50:52.526Z,3.00
2017-08-26T13:53:20.854Z,5.23
2017-08-26T13:55:49.182Z,3.87
2017-08-26T13:58:17.797Z,5.87
2017-08-26T14:00:46.246Z,6.27
2017-08-26T14:03:14.588Z,4.90
2017-08-26T14:05:43.377Z,2.87
2017-08-26T14:08:11.732Z,3.87
2017-08-26T14:10:40.129Z,4.60
2017-08-26T14:13:08.904Z,6.03
2017-08-26T14:15:37.457Z,3.83
2017-08-26T14:18:06.915Z,4.00
2017-08-26T14:20:35.641Z,4.23
2017-08-26T14:23:03.975Z,5.40
2017-08-26T14:25:32.473Z,6.93
2017-08-26T14:28:01.478Z,5.77
2017-08-26T14:30:30.940Z,7.20
2017-08-26T14:32:59.383Z,4.23
2017-08-26T14:35:27.805Z,3.90
2017-08-26T14:37:56.352Z,5.93
2017-08-26T14:40:25.570Z,3.80
2017-08-26T14:42:54.204Z,6.40
2017-08-26T14:45:22.548Z,5.17
2017-08-26T14:47:50.943Z,4.50
2017-08-26T14:50:19.616Z,5.40
2017-08-26T14:52:47.954Z,6.73
2017-08-26T14:55:16.377Z,4.60
2017-08-26T14:57:44.917Z,4.70
2017-08-26T15:00:13.328Z,8.77
2017-08-26T15:02:41.674Z,3.70
2017-08-26T15:05:10.397Z,4.07
2017-08-26T15:07:38.797Z,3.80
2017-08-26T15:10:07.283Z,6.60
2017-08-26T15:12:35.774Z,4.13
2017-08-26T15:15:04.244Z,6.33
2017-08-26T15:17:32.657Z,5.40
2017-08-26T15:20:02.003Z,5.80
2017-08-26T15:22:30.446Z,4.70
2017-08-26T15:24:59.009Z,3.10
2017-08-26T15:27:27.745Z,6.83
2017-08-26T15:29:56.173Z,6.10
2017-08-26T15:32:24.532Z,6.10
2017-08-26T15:34:53.242Z,7.47
2017-08-26T15:37:21.734Z,6.83
2017-08-26T15:39:51.003Z,5.70
2017-08-26T15:42:19.916Z,8.53
2017-08-26T15:44:48.528Z,5.37
2017-08-26T15:47:16.981Z,5.40
2017-08-26T15:49:47.177Z,10.10
2017-08-26T15:52:16.174Z,5.03
2017-08-26T15:54:44.514Z,4.73
2017-08-26T15:57:13.042Z,4.27
2017-08-26T15:59:41.380Z,4.80
2017-08-26T16:02:09.734Z,4.70
2017-08-26T16:04:38.257Z,4.70
2017-08-26T16:07:07.153Z,4.50
2017-08-26T16:09:36.092Z,4.87
2017-08-26T16:12:04.709Z,5.60
2017-08-26T16:14:33.052Z,6.00
2017-08-26T16:17:01.375Z,5.33
2017-08-26T16:19:29.769Z,4.50
2017-08-26T16:21:58.097Z,7.50
2017-08-26T16:24:26.410Z,6.30
2017-08-26T16:26:57.026Z,5.20
2017-08-26T16:29:25.413Z,5.50
2017-08-26T16:31:53.772Z,5.17
2017-08-26T16:34:22.457Z,5.47
2017-08-26T16:36:50.886Z,8.10
2017-08-26T16:39:23.019Z,5.97
2017-08-26T16:41:51.557Z,6.30
2017-08-26T16:44:20.235Z,5.00
2017-08-26T16:46:48.597Z,6.20
2017-08-26T16:49:17.250Z,7.00
2017-08-26T16:51:45.634Z,4.73
2017-08-26T16:54:13.949Z,6.53
2017-08-26T16:56:42.668Z,6.13
2017-08-26T16:59:10.980Z,5.20
2017-08-26T17:01:40.150Z,7.70
2017-08-26T17:04:08.676Z,7.00
2017-08-26T17:06:37.401Z,4.57
2017-08-26T17:09:05.748Z,6.60
2017-08-26T17:11:34.518Z,5.33
2017-08-26T17:14:02.867Z,5.80
2017-08-26T17:16:31.789Z,4.10
2017-08-26T17:19:00.391Z,5.07
2017-08-26T17:21:28.818Z,5.43
2017-08-26T17:23:59.827Z,6.23
2017-08-26T17:26:30.589Z,5.87
2017-08-26T17:29:03.385Z,5.23
2017-08-26T17:31:36.114Z,4.27
2017-08-26T17:34:04.451Z,5.70
2017-08-26T17:36:33.558Z,5.70
2017-08-26T17:39:02.229Z,5.07
2017-08-26T17:41:31.037Z,4.60
2017-08-26T17:43:59.537Z,6.50
2017-08-26T17:49:06.446Z,10.23
2017-08-26T17:51:35.314Z,10.47
2017-08-26T17:54:03.706Z,5.40
2017-08-26T17:56:32.077Z,5.13
2017-08-26T17:59:00.450Z,10.00
2017-08-26T18:01:28.795Z,11.83
2017-08-26T18:03:57.112Z,4.23
2017-08-26T18:06:25.719Z,4.17
2017-08-26T18:08:54.098Z,3.80
2017-08-26T18:11:22.458Z,3.33
2017-08-26T18:13:51.409Z,3.40
2017-08-26T18:16:19.793Z,3.43
2017-08-26T18:18:48.157Z,4.37
2017-08-26T18:21:16.708Z,3.83
2017-08-26T18:23:45.153Z,3.90
2017-08-26T18:26:13.612Z,3.67
2017-08-26T18:28:42.365Z,3.07
2017-08-26T18:31:10.706Z,2.80
2017-08-26T18:33:39.606Z,3.53
2017-08-26T18:36:08.206Z,3.37
2017-08-26T18:38:36.554Z,3.20
2017-08-26T18:41:04.929Z,4.10
2017-08-26T18:43:33.333Z,3.50
2017-08-26T18:46:01.768Z,2.80
2017-08-26T18:48:30.104Z,4.70
2017-08-26T18:50:58.551Z,3.90
2017-08-26T18:53:26.881Z,2.90
2017-08-26T18:55:55.263Z,3.80
2017-08-26T18:58:23.821Z,3.70
2017-08-26T19:00:52.200Z,4.10
2017-08-26T19:03:20.600Z,4.17
2017-08-26T19:05:48.978Z,6.13
2017-08-26T19:08:17.333Z,4.47
2017-08-26T19:10:45.670Z,4.37
2017-08-26T19:13:14.223Z,8.10
2017-08-26T19:15:42.729Z,11.13
2017-08-26T19:18:11.051Z,7.70
2017-08-26T19:20:39.403Z,5.40
2017-08-26T19:23:08.414Z,4.73
2017-08-26T19:25:37.616Z,6.33
2017-08-26T19:28:06.102Z,8.93
2017-08-26T19:30:34.460Z,22.57
2017-08-26T19:33:02.834Z,6.20
2017-08-26T19:35:31.374Z,13.13
2017-08-26T19:38:00.644Z,11.53
2017-08-26T19:40:28.984Z,10.90
2017-08-26T19:42:57.699Z,22.43
2017-08-26T19:45:26.088Z,6.20
2017-08-26T19:47:54.454Z,7.20
2017-08-26T19:50:23.276Z,13.83
2017-08-26T19:52:51.651Z,12.67
2017-08-26T19:55:20.376Z,9.73
2017-08-26T19:57:50.328Z,10.00
2017-08-26T20:00:19.145Z,9.90
2017-08-26T20:02:47.625Z,6.97
2017-08-26T20:05:16.222Z,6.53
2017-08-26T20:07:44.583Z,3.97
2017-08-26T20:10:13.092Z,7.73
2017-08-26T20:12:41.894Z,8.17
2017-08-26T20:15:10.202Z,7.67
2017-08-26T20:17:38.581Z,5.90
2017-08-26T20:20:07.349Z,4.57
2017-08-26T20:22:35.730Z,8.23
2017-08-26T20:25:04.085Z,10.33
2017-08-26T20:27:32.635Z,6.67
2017-08-26T20:30:00.994Z,5.17
2017-08-26T20:32:29.367Z,5.77
2017-08-26T20:34:58.053Z,9.90
2017-08-26T20:37:26.563Z,8.00
2017-08-26T20:39:54.955Z,10.17
2017-08-26T20:42:23.847Z,9.77
2017-08-26T20:44:52.805Z,6.00
2017-08-26T20:47:21.339Z,6.40
2017-08-26T20:49:50.201Z,8.10
2017-08-26T20:52:18.601Z,6.50
2017-08-26T20:54:47.665Z,10.63
2017-08-26T20:57:18.203Z,7.20
2017-08-26T20:59:46.605Z,9.00
2017-08-26T21:02:16.701Z,10.63
2017-08-26T21:04:45.526Z,8.20
2017-08-26T21:07:13.861Z,12.07
2017-08-26T21:09:42.185Z,8.10
2017-08-26T21:12:10.721Z,9.77
2017-08-26T21:14:39.046Z,10.07
2017-08-26T21:17:07.373Z,7.93
2017-08-26T21:19:35.975Z,9.97
2017-08-26T21:22:04.301Z,18.00
2017-08-26T21:24:33.667Z,12.03
2017-08-26T21:27:02.029Z,8.00
2017-08-26T21:29:31.370Z,7.70
2017-08-26T21:31:59.894Z,9.87
2017-08-26T21:34:28.613Z,11.57
2017-08-26T21:36:56.963Z,7.97
2017-08-26T21:39:25.296Z,15.20
2017-08-26T21:41:53.994Z,8.30
2017-08-26T21:44:22.333Z,10.73
2017-08-26T21:46:51.201Z,11.50
2017-08-26T21:49:19.794Z,9.93
2017-08-26T21:51:48.160Z,10.90
2017-08-26T21:54:16.510Z,12.00
2017-08-26T21:56:45.223Z,9.40
2017-08-26T21:59:13.545Z,11.90
2017-08-26T22:01:41.905Z,17.47
2017-08-26T22:04:10.540Z,8.67
2017-08-26T22:06:39.716Z,8.40
2017-08-26T22:09:08.062Z,8.67
2017-08-26T22:11:36.478Z,11.03
2017-08-26T22:14:04.875Z,9.77
2017-08-26T22:16:33.210Z,10.57
2017-08-26T22:19:02.525Z,10.40
2017-08-26T22:21:30.845Z,10.10
2017-08-26T22:23:59.958Z,12.17
2017-08-26T22:26:28.739Z,11.07
2017-08-26T22:28:57.087Z,11.00
2017-08-26T22:31:26.070Z,9.50
2017-08-26T22:33:55.997Z,11.17
2017-08-26T22:36:24.380Z,11.70
2017-08-26T22:38:53.489Z,12.43
2017-08-26T22:41:22.076Z,10.67
2017-08-26T22:43:50.426Z,10.23
2017-08-26T22:46:18.908Z,11.40
2017-08-26T22:48:47.384Z,9.93
2017-08-26T22:51:15.692Z,10.87
2017-08-26T22:53:44.593Z,9.93
2017-08-26T22:56:13.416Z,10.33
2017-08-26T22:58:41.836Z,9.17
2017-08-26T23:01:10.335Z,8.80
2017-08-26T23:03:38.877Z,8.90
2017-08-26T23:06:07.953Z,8.53
2017-08-26T23:08:36.300Z,8.77
2017-08-26T23:11:05.106Z,9.07
2017-08-26T23:13:33.541Z,8.50
2017-08-26T23:16:01.865Z,10.23
2017-08-26T23:18:30.352Z,10.07
2017-08-26T23:20:58.710Z,9.50
2017-08-26T23:23:27.021Z,9.33
2017-08-26T23:25:55.577Z,9.67
2017-08-26T23:28:24.016Z,9.53
2017-08-26T23:30:52.489Z,9.57
2017-08-26T23:33:21.220Z,9.70
2017-08-26T23:35:49.592Z,10.43
2017-08-26T23:38:17.996Z,11.57
2017-08-26T23:40:46.676Z,10.60
2017-08-26T23:43:15.035Z,12.67
2017-08-26T23:45:43.373Z,11.80
2017-08-26T23:48:12.076Z,12.07
2017-08-26T23:50:40.519Z,13.20
2017-08-26T23:53:08.887Z,13.77
2017-08-26T23:55:37.452Z,13.57
2017-08-26T23:58:05.787Z,14.70
